sensor_id;sensor_type;location;lat;lon;timestamp;P1;durP1;ratioP1;P2;durP2;ratioP2
34585;SDS011;20816;50.950;11.108;2023-02-08T00:02:01;9.53;;;4.90;;
34585;SDS011;20816;50.950;11.108;2023-02-08T00:04:27;10.60;;;4.20;;
34585;SDS011;20816;50.950;11.108;2023-02-08T00:06:54;15.47;;;4.83;;
34585;SDS011;20816;50.950;11.108;2023-02-08T00:09:21;8.13;;;5.00;;
34585;SDS011;20816;50.950;11.108;2023-02-08T00:11:47;10.10;;;4.80;;
34585;SDS011;20816;50.950;11.108;2023-02-08T00:14:14;10.70;;;5.03;;
34585;SDS011;20816;50.950;11.108;2023-02-08T00:16:41;14.87;;;6.60;;
34585;SDS011;20816;50.950;11.108;2023-02-08T00:19:08;8.30;;;4.00;;
34585;SDS011;20816;50.950;11.108;2023-02-08T00:21:34;8.27;;;4.83;;
34585;SDS011;20816;50.950;11.108;2023-02-08T00:24:01;16.53;;;3.87;;
34585;SDS011;20816;50.950;11.108;2023-02-08T00:26:28;8.53;;;4.30;;
34585;SDS011;20816;50.950;11.108;2023-02-08T00:28:55;9.30;;;4.50;;
34585;SDS011;20816;50.950;11.108;2023-02-08T00:31:21;19.40;;;4.53;;
34585;SDS011;20816;50.950;11.108;2023-02-08T00:33:48;5.40;;;3.63;;
34585;SDS011;20816;50.950;11.108;2023-02-08T00:36:15;6.73;;;3.53;;
34585;SDS011;20816;50.950;11.108;2023-02-08T00:38:41;8.23;;;4.13;;
34585;SDS011;20816;50.950;11.108;2023-02-08T00:41:08;8.37;;;5.03;;
34585;SDS011;20816;50.950;11.108;2023-02-08T00:43:35;7.10;;;4.77;;
34585;SDS011;20816;50.950;11.108;2023-02-08T00:46:02;11.90;;;4.73;;
34585;SDS011;20816;50.950;11.108;2023-02-08T00:48:29;6.90;;;3.43;;
34585;SDS011;20816;50.950;11.108;2023-02-08T00:51:00;5.63;;;4.00;;
34585;SDS011;20816;50.950;11.108;2023-02-08T00:53:27;12.20;;;5.90;;
34585;SDS011;20816;50.950;11.108;2023-02-08T00:55:55;5.30;;;3.60;;
34585;SDS011;20816;50.950;11.108;2023-02-08T00:58:22;9.30;;;3.73;;
34585;SDS011;20816;50.950;11.108;2023-02-08T01:00:50;6.97;;;3.77;;
34585;SDS011;20816;50.950;11.108;2023-02-08T01:03:19;6.50;;;3.07;;
34585;SDS011;20816;50.950;11.108;2023-02-08T01:05:46;5.73;;;4.70;;
34585;SDS011;20816;50.950;11.108;2023-02-08T01:08:13;13.17;;;4.90;;
34585;SDS011;20816;50.950;11.108;2023-02-08T01:10:40;11.40;;;4.97;;
34585;SDS011;20816;50.950;11.108;2023-02-08T01:13:07;7.87;;;3.63;;
34585;SDS011;20816;50.950;11.108;2023-02-08T01:15:35;8.00;;;4.33;;
34585;SDS011;20816;50.950;11.108;2023-02-08T01:18:03;6.40;;;3.77;;
34585;SDS011;20816;50.950;11.108;2023-02-08T01:20:30;4.50;;;3.13;;
34585;SDS011;20816;50.950;11.108;2023-02-08T01:22:59;8.17;;;4.33;;
34585;SDS011;20816;50.950;11.108;2023-02-08T01:25:26;7.50;;;4.43;;
34585;SDS011;20816;50.950;11.108;2023-02-08T01:27:53;13.17;;;4.10;;
34585;SDS011;20816;50.950;11.108;2023-02-08T01:30:22;6.10;;;3.43;;
34585;SDS011;20816;50.950;11.108;2023-02-08T01:32:49;5.17;;;3.00;;
34585;SDS011;20816;50.950;11.108;2023-02-08T01:35:16;6.97;;;4.37;;
34585;SDS011;20816;50.950;11.108;2023-02-08T01:37:43;14.30;;;5.43;;
34585;SDS011;20816;50.950;11.108;2023-02-08T01:40:09;7.40;;;3.83;;
34585;SDS011;20816;50.950;11.108;2023-02-08T01:42:36;7.50;;;3.10;;
34585;SDS011;20816;50.950;11.108;2023-02-08T01:47:47;9.77;;;3.63;;
34585;SDS011;20816;50.950;11.108;2023-02-08T01:50:17;5.87;;;3.03;;
34585;SDS011;20816;50.950;11.108;2023-02-08T01:52:46;8.57;;;4.57;;
34585;SDS011;20816;50.950;11.108;2023-02-08T01:55:15;16.60;;;4.43;;
34585;SDS011;20816;50.950;11.108;2023-02-08T01:57:54;5.90;;;3.40;;
34585;SDS011;20816;50.950;11.108;2023-02-08T02:00:25;4.47;;;3.57;;
34585;SDS011;20816;50.950;11.108;2023-02-08T02:02:53;3.57;;;3.03;;
34585;SDS011;20816;50.950;11.108;2023-02-08T02:05:22;8.37;;;4.17;;
34585;SDS011;20816;50.950;11.108;2023-02-08T02:07:53;6.53;;;3.37;;
34585;SDS011;20816;50.950;11.108;2023-02-08T02:10:29;10.70;;;4.03;;
34585;SDS011;20816;50.950;11.108;2023-02-08T02:13:01;5.20;;;4.17;;
34585;SDS011;20816;50.950;11.108;2023-02-08T02:15:31;9.43;;;3.90;;
34585;SDS011;20816;50.950;11.108;2023-02-08T02:17:59;7.03;;;2.53;;
34585;SDS011;20816;50.950;11.108;2023-02-08T02:28:48;3.70;;;2.40;;
34585;SDS011;20816;50.950;11.108;2023-02-08T02:31:58;6.70;;;2.47;;
34585;SDS011;20816;50.950;11.108;2023-02-08T02:40:02;7.13;;;3.97;;
34585;SDS011;20816;50.950;11.108;2023-02-08T02:45:49;5.57;;;3.13;;
34585;SDS011;20816;50.950;11.108;2023-02-08T02:48:45;6.10;;;2.93;;
34585;SDS011;20816;50.950;11.108;2023-02-08T02:54:16;2.43;;;2.10;;
34585;SDS011;20816;50.950;11.108;2023-02-08T02:56:47;4.63;;;3.10;;
34585;SDS011;20816;50.950;11.108;2023-02-08T02:59:17;4.77;;;2.93;;
34585;SDS011;20816;50.950;11.108;2023-02-08T03:01:45;3.77;;;2.07;;
34585;SDS011;20816;50.950;11.108;2023-02-08T03:04:16;4.80;;;3.13;;
34585;SDS011;20816;50.950;11.108;2023-02-08T03:07:00;7.93;;;3.90;;
34585;SDS011;20816;50.950;11.108;2023-02-08T03:09:58;9.93;;;4.27;;
34585;SDS011;20816;50.950;11.108;2023-02-08T03:12:52;4.67;;;3.03;;
34585;SDS011;20816;50.950;11.108;2023-02-08T03:15:29;8.03;;;3.13;;
34585;SDS011;20816;50.950;11.108;2023-02-08T03:23:55;3.13;;;2.90;;
34585;SDS011;20816;50.950;11.108;2023-02-08T03:32:09;4.83;;;3.27;;
34585;SDS011;20816;50.950;11.108;2023-02-08T03:34:45;4.70;;;2.60;;
34585;SDS011;20816;50.950;11.108;2023-02-08T03:37:26;7.60;;;4.60;;
34585;SDS011;20816;50.950;11.108;2023-02-08T03:40:26;5.17;;;3.60;;
34585;SDS011;20816;50.950;11.108;2023-02-08T03:42:57;4.83;;;3.43;;
34585;SDS011;20816;50.950;11.108;2023-02-08T03:45:31;6.87;;;3.63;;
34585;SDS011;20816;50.950;11.108;2023-02-08T03:48:03;5.17;;;2.97;;
34585;SDS011;20816;50.950;11.108;2023-02-08T03:50:32;5.80;;;3.57;;
34585;SDS011;20816;50.950;11.108;2023-02-08T03:53:03;9.13;;;4.07;;
34585;SDS011;20816;50.950;11.108;2023-02-08T03:55:32;6.03;;;3.80;;
34585;SDS011;20816;50.950;11.108;2023-02-08T03:58:10;5.10;;;2.47;;
34585;SDS011;20816;50.950;11.108;2023-02-08T04:00:47;12.63;;;3.27;;
34585;SDS011;20816;50.950;11.108;2023-02-08T04:03:23;3.70;;;2.47;;
34585;SDS011;20816;50.950;11.108;2023-02-08T04:05:52;3.70;;;2.60;;
34585;SDS011;20816;50.950;11.108;2023-02-08T04:08:20;3.23;;;3.00;;
34585;SDS011;20816;50.950;11.108;2023-02-08T04:10:47;5.60;;;3.50;;
34585;SDS011;20816;50.950;11.108;2023-02-08T04:13:14;5.87;;;3.30;;
34585;SDS011;20816;50.950;11.108;2023-02-08T04:15:41;3.40;;;2.80;;
34585;SDS011;20816;50.950;11.108;2023-02-08T04:18:09;3.40;;;2.23;;
34585;SDS011;20816;50.950;11.108;2023-02-08T04:20:36;2.93;;;2.63;;
34585;SDS011;20816;50.950;11.108;2023-02-08T04:23:03;6.03;;;2.97;;
34585;SDS011;20816;50.950;11.108;2023-02-08T04:25:30;3.47;;;2.30;;
34585;SDS011;20816;50.950;11.108;2023-02-08T04:27:56;6.53;;;2.83;;
34585;SDS011;20816;50.950;11.108;2023-02-08T04:30:23;7.57;;;4.30;;
34585;SDS011;20816;50.950;11.108;2023-02-08T04:32:49;3.50;;;3.03;;
34585;SDS011;20816;50.950;11.108;2023-02-08T04:35:16;9.03;;;4.57;;
34585;SDS011;20816;50.950;11.108;2023-02-08T04:37:43;5.90;;;2.93;;
34585;SDS011;20816;50.950;11.108;2023-02-08T04:40:10;4.47;;;2.97;;
34585;SDS011;20816;50.950;11.108;2023-02-08T04:42:37;5.50;;;2.83;;
34585;SDS011;20816;50.950;11.108;2023-02-08T04:45:03;6.83;;;3.43;;
34585;SDS011;20816;50.950;11.108;2023-02-08T04:47:30;5.23;;;2.97;;
34585;SDS011;20816;50.950;11.108;2023-02-08T04:49:57;6.60;;;3.73;;
34585;SDS011;20816;50.950;11.108;2023-02-08T04:52:23;3.23;;;2.37;;
34585;SDS011;20816;50.950;11.108;2023-02-08T04:54:50;8.00;;;1.90;;
34585;SDS011;20816;50.950;11.108;2023-02-08T04:57:17;3.37;;;3.07;;
34585;SDS011;20816;50.950;11.108;2023-02-08T04:59:44;5.40;;;2.53;;
34585;SDS011;20816;50.950;11.108;2023-02-08T05:02:11;2.17;;;1.70;;
34585;SDS011;20816;50.950;11.108;2023-02-08T05:04:37;8.57;;;3.17;;
34585;SDS011;20816;50.950;11.108;2023-02-08T05:07:04;7.60;;;3.10;;
34585;SDS011;20816;50.950;11.108;2023-02-08T05:09:31;3.03;;;1.70;;
34585;SDS011;20816;50.950;11.108;2023-02-08T05:11:57;9.03;;;4.10;;
34585;SDS011;20816;50.950;11.108;2023-02-08T05:14:24;5.67;;;2.40;;
34585;SDS011;20816;50.950;11.108;2023-02-08T05:16:51;5.57;;;2.43;;
34585;SDS011;20816;50.950;11.108;2023-02-08T05:19:18;3.20;;;2.73;;
34585;SDS011;20816;50.950;11.108;2023-02-08T05:21:44;6.73;;;3.73;;
34585;SDS011;20816;50.950;11.108;2023-02-08T05:24:11;2.77;;;2.33;;
34585;SDS011;20816;50.950;11.108;2023-02-08T05:26:38;5.97;;;1.93;;
34585;SDS011;20816;50.950;11.108;2023-02-08T05:29:05;5.90;;;2.90;;
34585;SDS011;20816;50.950;11.108;2023-02-08T05:31:32;9.67;;;3.27;;
34585;SDS011;20816;50.950;11.108;2023-02-08T05:33:59;7.10;;;2.23;;
34585;SDS011;20816;50.950;11.108;2023-02-08T05:36:26;3.97;;;3.20;;
34585;SDS011;20816;50.950;11.108;2023-02-08T05:38:53;7.17;;;3.63;;
34585;SDS011;20816;50.950;11.108;2023-02-08T05:41:20;4.97;;;3.40;;
34585;SDS011;20816;50.950;11.108;2023-02-08T05:43:47;4.00;;;3.40;;
34585;SDS011;20816;50.950;11.108;2023-02-08T05:46:13;4.00;;;2.40;;
34585;SDS011;20816;50.950;11.108;2023-02-08T05:48:40;5.40;;;2.57;;
34585;SDS011;20816;50.950;11.108;2023-02-08T05:51:07;7.57;;;2.97;;
34585;SDS011;20816;50.950;11.108;2023-02-08T05:53:33;14.47;;;3.13;;
34585;SDS011;20816;50.950;11.108;2023-02-08T05:56:00;6.43;;;2.80;;
34585;SDS011;20816;50.950;11.108;2023-02-08T05:58:27;5.27;;;2.27;;
34585;SDS011;20816;50.950;11.108;2023-02-08T06:00:54;4.07;;;2.43;;
34585;SDS011;20816;50.950;11.108;2023-02-08T06:03:21;7.63;;;3.10;;
34585;SDS011;20816;50.950;11.108;2023-02-08T06:05:48;3.60;;;2.30;;
34585;SDS011;20816;50.950;11.108;2023-02-08T06:08:14;2.07;;;1.03;;
34585;SDS011;20816;50.950;11.108;2023-02-08T06:10:41;10.47;;;3.23;;
34585;SDS011;20816;50.950;11.108;2023-02-08T06:13:08;7.97;;;2.53;;
34585;SDS011;20816;50.950;11.108;2023-02-08T06:15:35;3.67;;;3.37;;
34585;SDS011;20816;50.950;11.108;2023-02-08T06:18:01;3.37;;;2.27;;
34585;SDS011;20816;50.950;11.108;2023-02-08T06:20:28;4.97;;;2.47;;
34585;SDS011;20816;50.950;11.108;2023-02-08T06:22:55;7.07;;;3.37;;
34585;SDS011;20816;50.950;11.108;2023-02-08T06:25:21;3.83;;;3.20;;
34585;SDS011;20816;50.950;11.108;2023-02-08T06:27:48;7.97;;;3.80;;
34585;SDS011;20816;50.950;11.108;2023-02-08T06:30:15;18.23;;;4.23;;
34585;SDS011;20816;50.950;11.108;2023-02-08T06:32:42;8.60;;;4.50;;
34585;SDS011;20816;50.950;11.108;2023-02-08T06:35:09;7.80;;;4.53;;
34585;SDS011;20816;50.950;11.108;2023-02-08T06:37:35;13.17;;;5.83;;
34585;SDS011;20816;50.950;11.108;2023-02-08T06:40:03;8.93;;;5.20;;
34585;SDS011;20816;50.950;11.108;2023-02-08T06:42:31;13.90;;;4.13;;
34585;SDS011;20816;50.950;11.108;2023-02-08T06:44:58;13.33;;;7.00;;
34585;SDS011;20816;50.950;11.108;2023-02-08T06:47:25;17.43;;;6.17;;
34585;SDS011;20816;50.950;11.108;2023-02-08T06:49:52;11.93;;;5.73;;
34585;SDS011;20816;50.950;11.108;2023-02-08T06:52:19;10.40;;;4.73;;
34585;SDS011;20816;50.950;11.108;2023-02-08T06:54:46;11.40;;;5.80;;
34585;SDS011;20816;50.950;11.108;2023-02-08T06:57:13;14.73;;;9.73;;
34585;SDS011;20816;50.950;11.108;2023-02-08T06:59:40;15.93;;;6.97;;
34585;SDS011;20816;50.950;11.108;2023-02-08T07:02:10;12.47;;;6.80;;
34585;SDS011;20816;50.950;11.108;2023-02-08T07:04:39;14.93;;;7.47;;
34585;SDS011;20816;50.950;11.108;2023-02-08T07:07:05;17.73;;;8.57;;
34585;SDS011;20816;50.950;11.108;2023-02-08T07:09:33;20.47;;;8.57;;
34585;SDS011;20816;50.950;11.108;2023-02-08T07:12:01;6.80;;;4.87;;
34585;SDS011;20816;50.950;11.108;2023-02-08T07:14:38;8.50;;;5.47;;
34585;SDS011;20816;50.950;11.108;2023-02-08T07:17:06;19.13;;;5.47;;
34585;SDS011;20816;50.950;11.108;2023-02-08T07:19:34;14.83;;;6.20;;
34585;SDS011;20816;50.950;11.108;2023-02-08T07:22:01;10.40;;;4.73;;
34585;SDS011;20816;50.950;11.108;2023-02-08T07:24:34;13.80;;;4.93;;
34585;SDS011;20816;50.950;11.108;2023-02-08T07:27:02;7.10;;;4.80;;
34585;SDS011;20816;50.950;11.108;2023-02-08T07:29:30;6.13;;;5.27;;
34585;SDS011;20816;50.950;11.108;2023-02-08T07:31:58;8.90;;;4.47;;
34585;SDS011;20816;50.950;11.108;2023-02-08T07:34:30;6.27;;;4.47;;
34585;SDS011;20816;50.950;11.108;2023-02-08T07:36:58;9.47;;;6.17;;
34585;SDS011;20816;50.950;11.108;2023-02-08T07:39:25;11.63;;;5.30;;
34585;SDS011;20816;50.950;11.108;2023-02-08T07:41:52;9.53;;;4.23;;
34585;SDS011;20816;50.950;11.108;2023-02-08T07:44:19;9.77;;;5.30;;
34585;SDS011;20816;50.950;11.108;2023-02-08T07:46:46;9.53;;;5.57;;
34585;SDS011;20816;50.950;11.108;2023-02-08T07:49:13;11.60;;;4.93;;
34585;SDS011;20816;50.950;11.108;2023-02-08T07:51:39;8.33;;;4.47;;
34585;SDS011;20816;50.950;11.108;2023-02-08T07:54:06;4.60;;;4.10;;
34585;SDS011;20816;50.950;11.108;2023-02-08T07:56:33;12.23;;;5.20;;
34585;SDS011;20816;50.950;11.108;2023-02-08T07:59:00;8.07;;;3.63;;
34585;SDS011;20816;50.950;11.108;2023-02-08T08:01:27;8.43;;;4.73;;
34585;SDS011;20816;50.950;11.108;2023-02-08T08:03:54;4.00;;;3.07;;
34585;SDS011;20816;50.950;11.108;2023-02-08T08:06:21;12.20;;;4.63;;
34585;SDS011;20816;50.950;11.108;2023-02-08T08:08:48;11.97;;;4.73;;
34585;SDS011;20816;50.950;11.108;2023-02-08T08:11:16;7.50;;;3.77;;
34585;SDS011;20816;50.950;11.108;2023-02-08T08:13:43;6.17;;;3.37;;
34585;SDS011;20816;50.950;11.108;2023-02-08T08:16:10;8.13;;;4.60;;
34585;SDS011;20816;50.950;11.108;2023-02-08T08:18:37;6.90;;;3.40;;
34585;SDS011;20816;50.950;11.108;2023-02-08T08:21:04;10.07;;;4.97;;
34585;SDS011;20816;50.950;11.108;2023-02-08T08:23:31;7.97;;;3.87;;
34585;SDS011;20816;50.950;11.108;2023-02-08T08:25:59;9.50;;;4.70;;
34585;SDS011;20816;50.950;11.108;2023-02-08T08:28:26;8.43;;;5.63;;
34585;SDS011;20816;50.950;11.108;2023-02-08T08:30:53;11.13;;;6.03;;
34585;SDS011;20816;50.950;11.108;2023-02-08T08:33:20;13.17;;;7.43;;
34585;SDS011;20816;50.950;11.108;2023-02-08T08:35:46;12.17;;;5.53;;
34585;SDS011;20816;50.950;11.108;2023-02-08T08:38:13;11.87;;;6.93;;
34585;SDS011;20816;50.950;11.108;2023-02-08T08:40:40;12.03;;;6.97;;
34585;SDS011;20816;50.950;11.108;2023-02-08T08:43:07;16.07;;;8.10;;
34585;SDS011;20816;50.950;11.108;2023-02-08T08:45:34;18.67;;;7.20;;
34585;SDS011;20816;50.950;11.108;2023-02-08T08:48:04;15.20;;;7.70;;
34585;SDS011;20816;50.950;11.108;2023-02-08T08:50:31;22.93;;;9.60;;
34585;SDS011;20816;50.950;11.108;2023-02-08T08:52:58;17.90;;;9.27;;
34585;SDS011;20816;50.950;11.108;2023-02-08T08:55:25;26.03;;;9.17;;
34585;SDS011;20816;50.950;11.108;2023-02-08T08:57:53;21.63;;;9.37;;
34585;SDS011;20816;50.950;11.108;2023-02-08T09:00:20;20.70;;;9.03;;
34585;SDS011;20816;50.950;11.108;2023-02-08T09:02:47;21.07;;;9.33;;
34585;SDS011;20816;50.950;11.108;2023-02-08T09:05:14;19.27;;;10.27;;
34585;SDS011;20816;50.950;11.108;2023-02-08T09:07:41;17.97;;;7.37;;
34585;SDS011;20816;50.950;11.108;2023-02-08T09:10:07;24.10;;;10.30;;
34585;SDS011;20816;50.950;11.108;2023-02-08T09:12:34;17.33;;;9.37;;
34585;SDS011;20816;50.950;11.108;2023-02-08T09:15:01;25.20;;;9.50;;
34585;SDS011;20816;50.950;11.108;2023-02-08T09:17:28;17.43;;;9.90;;
34585;SDS011;20816;50.950;11.108;2023-02-08T09:19:54;21.27;;;9.67;;
34585;SDS011;20816;50.950;11.108;2023-02-08T09:22:21;20.87;;;9.97;;
34585;SDS011;20816;50.950;11.108;2023-02-08T09:24:48;20.00;;;9.37;;
34585;SDS011;20816;50.950;11.108;2023-02-08T09:27:14;20.40;;;10.57;;
34585;SDS011;20816;50.950;11.108;2023-02-08T09:29:41;19.83;;;9.30;;
34585;SDS011;20816;50.950;11.108;2023-02-08T09:32:08;22.13;;;10.60;;
34585;SDS011;20816;50.950;11.108;2023-02-08T09:34:35;27.87;;;11.30;;
34585;SDS011;20816;50.950;11.108;2023-02-08T09:37:02;25.73;;;11.03;;
34585;SDS011;20816;50.950;11.108;2023-02-08T09:39:29;27.37;;;11.33;;
34585;SDS011;20816;50.950;11.108;2023-02-08T09:42:13;24.93;;;9.70;;
34585;SDS011;20816;50.950;11.108;2023-02-08T09:47:24;14.23;;;7.63;;
34585;SDS011;20816;50.950;11.108;2023-02-08T09:50:00;22.10;;;8.87;;
34585;SDS011;20816;50.950;11.108;2023-02-08T09:52:32;21.37;;;10.23;;
34585;SDS011;20816;50.950;11.108;2023-02-08T09:55:38;20.07;;;8.00;;
34585;SDS011;20816;50.950;11.108;2023-02-08T09:58:14;20.13;;;9.63;;
34585;SDS011;20816;50.950;11.108;2023-02-08T10:00:45;17.50;;;10.00;;
34585;SDS011;20816;50.950;11.108;2023-02-08T10:03:20;26.37;;;9.43;;
34585;SDS011;20816;50.950;11.108;2023-02-08T10:05:53;24.00;;;10.87;;
34585;SDS011;20816;50.950;11.108;2023-02-08T10:08:20;21.67;;;11.47;;
34585;SDS011;20816;50.950;11.108;2023-02-08T10:17:01;26.73;;;12.07;;
34585;SDS011;20816;50.950;11.108;2023-02-08T10:36:23;26.40;;;10.47;;
34585;SDS011;20816;50.950;11.108;2023-02-08T10:38:54;21.00;;;11.97;;
34585;SDS011;20816;50.950;11.108;2023-02-08T10:41:24;24.83;;;11.03;;
34585;SDS011;20816;50.950;11.108;2023-02-08T10:44:00;16.70;;;9.47;;
34585;SDS011;20816;50.950;11.108;2023-02-08T10:49:29;23.83;;;11.00;;
34585;SDS011;20816;50.950;11.108;2023-02-08T10:52:00;28.03;;;12.30;;
34585;SDS011;20816;50.950;11.108;2023-02-08T10:54:27;28.70;;;12.90;;
34585;SDS011;20816;50.950;11.108;2023-02-08T10:56:55;27.33;;;11.30;;
34585;SDS011;20816;50.950;11.108;2023-02-08T10:59:30;20.73;;;11.57;;
34585;SDS011;20816;50.950;11.108;2023-02-08T11:02:01;19.53;;;11.50;;
34585;SDS011;20816;50.950;11.108;2023-02-08T11:04:28;17.67;;;8.77;;
34585;SDS011;20816;50.950;11.108;2023-02-08T11:06:54;18.13;;;9.93;;
34585;SDS011;20816;50.950;11.108;2023-02-08T11:09:23;18.33;;;10.00;;
34585;SDS011;20816;50.950;11.108;2023-02-08T11:11:55;22.70;;;10.00;;
34585;SDS011;20816;50.950;11.108;2023-02-08T11:14:25;21.67;;;10.40;;
34585;SDS011;20816;50.950;11.108;2023-02-08T11:17:25;19.83;;;9.80;;
34585;SDS011;20816;50.950;11.108;2023-02-08T11:19:55;19.47;;;11.30;;
34585;SDS011;20816;50.950;11.108;2023-02-08T11:22:25;28.57;;;11.23;;
34585;SDS011;20816;50.950;11.108;2023-02-08T11:24:57;29.60;;;12.67;;
34585;SDS011;20816;50.950;11.108;2023-02-08T11:30:10;22.90;;;11.27;;
34585;SDS011;20816;50.950;11.108;2023-02-08T11:32:46;23.80;;;11.57;;
34585;SDS011;20816;50.950;11.108;2023-02-08T11:37:50;21.73;;;12.03;;
34585;SDS011;20816;50.950;11.108;2023-02-08T11:40:20;22.77;;;11.17;;
34585;SDS011;20816;50.950;11.108;2023-02-08T11:42:49;23.87;;;10.97;;
34585;SDS011;20816;50.950;11.108;2023-02-08T11:45:18;26.63;;;12.07;;
34585;SDS011;20816;50.950;11.108;2023-02-08T11:47:51;23.70;;;11.20;;
34585;SDS011;20816;50.950;11.108;2023-02-08T11:50:31;25.93;;;13.40;;
34585;SDS011;20816;50.950;11.108;2023-02-08T11:53:01;22.23;;;11.67;;
34585;SDS011;20816;50.950;11.108;2023-02-08T11:55:31;25.70;;;13.33;;
34585;SDS011;20816;50.950;11.108;2023-02-08T12:00:31;24.47;;;11.43;;
34585;SDS011;20816;50.950;11.108;2023-02-08T12:03:11;19.87;;;11.37;;
34585;SDS011;20816;50.950;11.108;2023-02-08T12:05:48;27.07;;;13.00;;
34585;SDS011;20816;50.950;11.108;2023-02-08T12:08:38;22.70;;;12.77;;
34585;SDS011;20816;50.950;11.108;2023-02-08T12:11:14;23.13;;;12.13;;
34585;SDS011;20816;50.950;11.108;2023-02-08T12:16:48;26.47;;;11.77;;
34585;SDS011;20816;50.950;11.108;2023-02-08T12:19:30;29.37;;;13.87;;
34585;SDS011;20816;50.950;11.108;2023-02-08T12:22:32;20.70;;;10.97;;
34585;SDS011;20816;50.950;11.108;2023-02-08T12:28:01;28.57;;;14.13;;
34585;SDS011;20816;50.950;11.108;2023-02-08T12:36:13;27.83;;;13.67;;
34585;SDS011;20816;50.950;11.108;2023-02-08T12:41:53;22.00;;;11.10;;
34585;SDS011;20816;50.950;11.108;2023-02-08T12:44:44;24.43;;;12.97;;
34585;SDS011;20816;50.950;11.108;2023-02-08T12:53:26;20.17;;;10.73;;
34585;SDS011;20816;50.950;11.108;2023-02-08T12:56:04;21.00;;;10.10;;
34585;SDS011;20816;50.950;11.108;2023-02-08T13:01:21;22.53;;;11.17;;
34585;SDS011;20816;50.950;11.108;2023-02-08T13:07:09;17.03;;;9.67;;
34585;SDS011;20816;50.950;11.108;2023-02-08T13:15:19;17.37;;;10.37;;
34585;SDS011;20816;50.950;11.108;2023-02-08T13:17:57;18.50;;;10.43;;
34585;SDS011;20816;50.950;11.108;2023-02-08T13:22:56;23.57;;;11.30;;
34585;SDS011;20816;50.950;11.108;2023-02-08T13:25:29;18.43;;;9.90;;
34585;SDS011;20816;50.950;11.108;2023-02-08T13:28:00;22.30;;;10.37;;
34585;SDS011;20816;50.950;11.108;2023-02-08T13:30:29;23.33;;;11.93;;
34585;SDS011;20816;50.950;11.108;2023-02-08T13:32:58;19.67;;;11.87;;
34585;SDS011;20816;50.950;11.108;2023-02-08T13:35:34;18.30;;;11.10;;
34585;SDS011;20816;50.950;11.108;2023-02-08T13:38:02;19.20;;;9.13;;
34585;SDS011;20816;50.950;11.108;2023-02-08T13:40:32;24.73;;;11.60;;
34585;SDS011;20816;50.950;11.108;2023-02-08T13:43:18;23.20;;;12.47;;
34585;SDS011;20816;50.950;11.108;2023-02-08T13:46:05;18.23;;;9.40;;
34585;SDS011;20816;50.950;11.108;2023-02-08T13:54:14;17.13;;;9.50;;
34585;SDS011;20816;50.950;11.108;2023-02-08T13:56:48;17.07;;;9.30;;
34585;SDS011;20816;50.950;11.108;2023-02-08T14:04:48;16.60;;;8.83;;
34585;SDS011;20816;50.950;11.108;2023-02-08T14:07:27;16.90;;;8.50;;
34585;SDS011;20816;50.950;11.108;2023-02-08T14:10:19;17.53;;;9.27;;
34585;SDS011;20816;50.950;11.108;2023-02-08T14:13:13;17.33;;;9.33;;
34585;SDS011;20816;50.950;11.108;2023-02-08T14:16:20;19.87;;;11.03;;
34585;SDS011;20816;50.950;11.108;2023-02-08T14:19:02;24.27;;;10.60;;
34585;SDS011;20816;50.950;11.108;2023-02-08T14:24:20;19.90;;;9.97;;
34585;SDS011;20816;50.950;11.108;2023-02-08T14:26:49;17.90;;;10.53;;
34585;SDS011;20816;50.950;11.108;2023-02-08T14:29:20;18.93;;;9.43;;
34585;SDS011;20816;50.950;11.108;2023-02-08T14:31:53;17.83;;;9.57;;
34585;SDS011;20816;50.950;11.108;2023-02-08T14:34:21;21.80;;;11.07;;
34585;SDS011;20816;50.950;11.108;2023-02-08T14:39:47;25.87;;;12.43;;
34585;SDS011;20816;50.950;11.108;2023-02-08T14:42:52;22.67;;;11.33;;
34585;SDS011;20816;50.950;11.108;2023-02-08T14:45:28;22.33;;;11.43;;
34585;SDS011;20816;50.950;11.108;2023-02-08T14:48:16;19.53;;;10.80;;
34585;SDS011;20816;50.950;11.108;2023-02-08T14:56:15;23.37;;;12.07;;
34585;SDS011;20816;50.950;11.108;2023-02-08T14:58:52;23.87;;;10.80;;
34585;SDS011;20816;50.950;11.108;2023-02-08T15:03:56;22.97;;;11.73;;
34585;SDS011;20816;50.950;11.108;2023-02-08T15:11:40;23.30;;;11.27;;
34585;SDS011;20816;50.950;11.108;2023-02-08T15:14:13;24.33;;;12.60;;
34585;SDS011;20816;50.950;11.108;2023-02-08T15:16:44;19.37;;;9.07;;
34585;SDS011;20816;50.950;11.108;2023-02-08T15:19:17;26.10;;;11.83;;
34585;SDS011;20816;50.950;11.108;2023-02-08T15:21:48;20.53;;;11.40;;
34585;SDS011;20816;50.950;11.108;2023-02-08T15:24:16;25.17;;;10.80;;
34585;SDS011;20816;50.950;11.108;2023-02-08T15:26:45;23.77;;;11.13;;
34585;SDS011;20816;50.950;11.108;2023-02-08T15:29:38;20.43;;;11.27;;
34585;SDS011;20816;50.950;11.108;2023-02-08T15:32:13;19.13;;;10.83;;
34585;SDS011;20816;50.950;11.108;2023-02-08T15:34:52;18.17;;;11.10;;
34585;SDS011;20816;50.950;11.108;2023-02-08T15:37:20;21.90;;;11.87;;
34585;SDS011;20816;50.950;11.108;2023-02-08T15:39:48;31.33;;;12.13;;
34585;SDS011;20816;50.950;11.108;2023-02-08T15:42:19;21.23;;;11.70;;
34585;SDS011;20816;50.950;11.108;2023-02-08T15:44:48;25.53;;;12.67;;
34585;SDS011;20816;50.950;11.108;2023-02-08T15:47:16;31.07;;;10.53;;
34585;SDS011;20816;50.950;11.108;2023-02-08T15:49:47;22.13;;;11.40;;
34585;SDS011;20816;50.950;11.108;2023-02-08T15:52:19;23.90;;;11.23;;
34585;SDS011;20816;50.950;11.108;2023-02-08T15:54:49;26.63;;;11.07;;
34585;SDS011;20816;50.950;11.108;2023-02-08T15:59:58;22.33;;;11.37;;
34585;SDS011;20816;50.950;11.108;2023-02-08T16:02:29;21.57;;;10.83;;
34585;SDS011;20816;50.950;11.108;2023-02-08T16:04:58;17.30;;;8.93;;
34585;SDS011;20816;50.950;11.108;2023-02-08T16:07:27;16.20;;;9.70;;
34585;SDS011;20816;50.950;11.108;2023-02-08T16:12:56;26.87;;;12.23;;
34585;SDS011;20816;50.950;11.108;2023-02-08T16:18:31;19.13;;;10.83;;
34585;SDS011;20816;50.950;11.108;2023-02-08T16:21:19;22.73;;;9.83;;
34585;SDS011;20816;50.950;11.108;2023-02-08T16:23:59;16.57;;;8.97;;
34585;SDS011;20816;50.950;11.108;2023-02-08T16:26:32;19.80;;;10.83;;
34585;SDS011;20816;50.950;11.108;2023-02-08T16:29:04;28.70;;;12.00;;
34585;SDS011;20816;50.950;11.108;2023-02-08T16:31:40;26.43;;;11.50;;
34585;SDS011;20816;50.950;11.108;2023-02-08T16:34:13;29.40;;;10.30;;
34585;SDS011;20816;50.950;11.108;2023-02-08T16:36:44;24.57;;;12.60;;
34585;SDS011;20816;50.950;11.108;2023-02-08T16:44:39;13.07;;;4.90;;
34585;SDS011;20816;50.950;11.108;2023-02-08T16:47:33;11.73;;;5.03;;
34585;SDS011;20816;50.950;11.108;2023-02-08T16:50:04;6.77;;;3.60;;
34585;SDS011;20816;50.950;11.108;2023-02-08T16:52:32;5.00;;;2.57;;
34585;SDS011;20816;50.950;11.108;2023-02-08T16:54:59;6.40;;;3.27;;
34585;SDS011;20816;50.950;11.108;2023-02-08T16:57:43;12.70;;;3.77;;
34585;SDS011;20816;50.950;11.108;2023-02-08T17:00:31;6.20;;;3.20;;
34585;SDS011;20816;50.950;11.108;2023-02-08T17:03:00;15.80;;;3.60;;
34585;SDS011;20816;50.950;11.108;2023-02-08T17:05:30;7.70;;;2.87;;
34585;SDS011;20816;50.950;11.108;2023-02-08T17:08:00;6.23;;;3.60;;
34585;SDS011;20816;50.950;11.108;2023-02-08T17:10:33;9.17;;;3.80;;
34585;SDS011;20816;50.950;11.108;2023-02-08T17:13:00;4.97;;;3.43;;
34585;SDS011;20816;50.950;11.108;2023-02-08T17:15:48;10.40;;;4.03;;